Time;durP1;ratioP1;P1;durP2;ratioP2;P2;SDS_P1;SDS_P2;PMS_P1;PMS_P2;Temp;Humidity;BMP_temperature;BMP_pressure;BME280_temperature;BME280_humidity;BME280_pressure;Samples;Min_cycle;Max_cycle;Signal;HPM_P1;HPM_P2
2023/01/15 00:01:00;;;;;;;2.80;0.70;;;7.30;99.90;;;;;;5015606;28;20259;-70
2023/01/15 00:03:28;;;;;;;2.87;1.00;;;7.20;99.90;;;;;;5030709;28;20274;-71
2023/01/15 00:05:55;;;;;;;2.77;0.97;;;7.20;99.90;;;;;;5028718;28;20192;-70
2023/01/15 00:08:21;;;;;;;3.73;0.80;;;7.20;99.90;;;;;;5046635;28;20773;-71
2023/01/15 00:10:48;;;;;;;4.07;0.87;;;7.20;99.90;;;;;;5046519;28;20243;-70
2023/01/15 00:13:15;;;;;;;6.67;1.10;;;7.20;99.90;;;;;;5043184;28;20201;-70
2023/01/15 00:15:42;;;;;;;5.00;1.23;;;7.20;99.90;;;;;;5037019;28;20220;-71
2023/01/15 00:18:10;;;;;;;3.17;1.30;;;7.20;99.90;;;;;;5033861;28;20209;-71
2023/01/15 00:20:37;;;;;;;3.60;0.80;;;7.20;99.90;;;;;;5010765;28;20228;-71
2023/01/15 00:23:04;;;;;;;3.30;1.00;;;7.20;99.90;;;;;;5038649;28;20206;-70
2023/01/15 00:28:15;;;;;;;3.30;1.30;;;7.20;99.90;;;;;;5026031;28;20316;-71
2023/01/15 00:30:42;;;;;;;2.60;1.00;;;7.20;99.90;;;;;;5038915;28;20225;-70
2023/01/15 00:33:10;;;;;;;3.50;0.90;;;7.20;99.90;;;;;;5042949;28;20210;-70
2023/01/15 00:35:37;;;;;;;3.47;1.20;;;7.20;99.90;;;;;;5026047;28;20212;-70
2023/01/15 00:38:04;;;;;;;4.63;0.97;;;7.20;99.90;;;;;;5041911;28;20205;-70
2023/01/15 00:40:31;;;;;;;1.80;0.93;;;7.20;99.90;;;;;;5050444;28;20193;-71
2023/01/15 00:42:57;;;;;;;6.57;1.13;;;7.20;99.90;;;;;;5031155;28;20209;-70
2023/01/15 00:45:24;;;;;;;5.50;1.30;;;7.20;99.90;;;;;;5048146;28;20201;-70
2023/01/15 00:47:51;;;;;;;2.20;0.90;;;7.20;99.90;;;;;;5025596;28;20730;-70
2023/01/15 00:50:19;;;;;;;3.20;1.00;;;7.20;99.90;;;;;;5021283;28;21977;-70
2023/01/15 00:52:46;;;;;;;7.30;1.47;;;7.20;99.90;;;;;;5049918;28;20208;-70
2023/01/15 00:55:13;;;;;;;6.77;1.57;;;7.10;99.90;;;;;;5045335;28;20197;-71
2023/01/15 00:57:40;;;;;;;7.53;1.40;;;7.20;99.90;;;;;;5036959;28;20207;-70
2023/01/15 01:00:07;;;;;;;1.87;0.97;;;7.10;99.90;;;;;;5031423;28;20670;-70
2023/01/15 01:02:34;;;;;;;3.40;1.10;;;7.10;99.90;;;;;;4999654;28;20816;-70
2023/01/15 01:05:01;;;;;;;9.10;1.50;;;7.10;99.90;;;;;;5043269;28;20220;-70
2023/01/15 01:07:29;;;;;;;1.33;0.90;;;7.20;99.90;;;;;;4992844;28;20265;-70
2023/01/15 01:09:56;;;;;;;4.43;1.00;;;7.20;99.90;;;;;;5032661;28;20224;-70
2023/01/15 01:12:23;;;;;;;4.00;1.00;;;7.10;99.90;;;;;;5013494;28;20208;-70
2023/01/15 01:14:50;;;;;;;1.53;0.90;;;7.10;99.90;;;;;;5023689;28;20217;-71
2023/01/15 01:17:17;;;;;;;2.57;0.53;;;7.00;99.90;;;;;;4992255;28;22770;-70
2023/01/15 01:19:43;;;;;;;1.03;0.67;;;7.10;99.90;;;;;;5022036;28;20217;-70
2023/01/15 01:22:10;;;;;;;1.67;0.80;;;7.10;99.90;;;;;;4997427;28;20209;-70
2023/01/15 01:24:38;;;;;;;3.57;0.87;;;7.10;99.90;;;;;;5035021;28;20197;-70
2023/01/15 01:27:05;;;;;;;4.93;1.10;;;7.10;99.90;;;;;;5035788;28;20208;-70
2023/01/15 01:29:32;;;;;;;2.33;1.43;;;7.10;99.90;;;;;;5029957;28;20201;-70
2023/01/15 01:31:59;;;;;;;2.73;0.77;;;7.10;99.90;;;;;;5032341;28;20205;-70
2023/01/15 01:34:25;;;;;;;3.23;0.80;;;7.10;99.90;;;;;;5047462;28;20196;-70
2023/01/15 01:36:52;;;;;;;2.83;0.97;;;7.10;99.90;;;;;;5014510;28;21192;-70
2023/01/15 01:39:19;;;;;;;2.63;0.90;;;7.00;99.90;;;;;;5035063;28;20220;-70
2023/01/15 01:41:48;;;;;;;4.27;1.10;;;7.00;99.90;;;;;;5036425;28;20208;-70
2023/01/15 01:45:02;;;;;;;1.73;0.70;;;7.00;99.90;;;;;;5034411;28;20201;-70
2023/01/15 01:47:31;;;;;;;1.13;0.90;;;7.00;99.90;;;;;;4980829;28;20202;-70
2023/01/15 01:50:03;;;;;;;4.10;1.10;;;7.00;99.90;;;;;;5022809;28;20539;-70
2023/01/15 01:52:32;;;;;;;8.27;1.17;;;7.00;99.90;;;;;;5029254;28;20212;-70
2023/01/15 01:55:01;;;;;;;2.70;1.00;;;7.00;99.90;;;;;;5036949;28;20625;-70
2023/01/15 01:57:29;;;;;;;5.60;1.40;;;7.10;99.90;;;;;;5048361;28;20208;-70
2023/01/15 01:59:57;;;;;;;4.27;0.97;;;7.00;99.90;;;;;;5029897;28;20205;-70
2023/01/15 02:02:24;;;;;;;6.67;1.30;;;7.10;99.90;;;;;;5052884;28;20204;-70
2023/01/15 02:04:51;;;;;;;1.93;1.07;;;7.00;99.90;;;;;;5025993;28;20201;-70
2023/01/15 02:07:18;;;;;;;4.17;1.10;;;7.10;99.90;;;;;;5018165;28;20694;-71
2023/01/15 02:09:45;;;;;;;3.57;2.00;;;7.10;99.90;;;;;;5039468;28;20216;-70
2023/01/15 02:12:19;;;;;;;5.53;1.43;;;7.00;99.90;;;;;;5037283;28;20201;-70
2023/01/15 02:14:53;;;;;;;4.90;1.27;;;7.00;99.90;;;;;;5039784;28;20205;-70
2023/01/15 02:17:25;;;;;;;6.50;1.30;;;7.00;99.90;;;;;;5049554;28;20212;-70
2023/01/15 02:20:01;;;;;;;4.97;1.30;;;7.00;99.90;;;;;;5038285;28;20727;-70
2023/01/15 02:22:37;;;;;;;5.20;1.20;;;7.00;99.90;;;;;;5049763;28;20196;-70
2023/01/15 02:25:11;;;;;;;4.07;1.20;;;7.00;99.90;;;;;;5007528;28;20204;-70
2023/01/15 02:27:43;;;;;;;4.07;1.03;;;7.00;99.90;;;;;;5043154;28;20201;-70
2023/01/15 02:30:16;;;;;;;4.37;0.90;;;7.00;99.90;;;;;;5030409;28;21296;-70
2023/01/15 02:32:49;;;;;;;7.47;1.10;;;7.00;99.90;;;;;;5039526;28;20577;-70
2023/01/15 02:35:21;;;;;;;5.03;1.00;;;7.00;99.90;;;;;;5040547;28;20196;-70
2023/01/15 02:37:53;;;;;;;7.07;1.40;;;7.00;99.90;;;;;;5031668;28;20208;-70
2023/01/15 02:40:22;;;;;;;9.47;2.40;;;7.00;99.90;;;;;;5009871;28;20228;-70
2023/01/15 02:42:51;;;;;;;5.60;1.37;;;7.00;99.90;;;;;;5051357;28;20669;-69
2023/01/15 02:45:23;;;;;;;6.37;1.40;;;7.00;99.90;;;;;;5021133;28;20201;-70
2023/01/15 02:47:51;;;;;;;6.97;1.27;;;7.00;99.90;;;;;;5044258;28;20201;-70
2023/01/15 02:50:22;;;;;;;3.87;1.13;;;7.00;99.90;;;;;;5031686;28;20229;-70
2023/01/15 02:52:55;;;;;;;9.03;1.20;;;7.00;99.90;;;;;;5048922;28;20205;-70
2023/01/15 02:55:26;;;;;;;3.30;0.90;;;7.10;99.90;;;;;;5020780;28;20201;-70
2023/01/15 02:57:58;;;;;;;3.67;1.13;;;7.00;99.90;;;;;;5035789;28;20205;-70
2023/01/15 03:00:26;;;;;;;5.07;1.30;;;7.00;99.90;;;;;;5045117;28;20211;-70
2023/01/15 03:02:58;;;;;;;5.20;1.37;;;7.00;99.90;;;;;;5038161;28;20728;-70
2023/01/15 03:05:29;;;;;;;5.40;1.40;;;7.00;99.90;;;;;;5038299;28;20796;-70
2023/01/15 03:07:58;;;;;;;14.17;1.30;;;7.00;99.90;;;;;;5037395;28;20774;-70
2023/01/15 03:10:36;;;;;;;4.77;1.10;;;7.00;99.90;;;;;;5012652;28;20256;-70
2023/01/15 03:13:07;;;;;;;8.47;1.40;;;7.00;99.90;;;;;;5025572;28;20610;-70
2023/01/15 03:18:33;;;;;;;8.03;1.43;;;6.90;99.90;;;;;;5029287;28;20387;-70
2023/01/15 03:21:04;;;;;;;8.73;1.30;;;6.90;99.90;;;;;;5047817;28;20781;-70
2023/01/15 03:23:36;;;;;;;2.53;1.00;;;6.90;99.90;;;;;;5040823;28;20208;-70
2023/01/15 03:26:03;;;;;;;6.20;1.43;;;6.90;99.90;;;;;;5017732;28;23407;-70
2023/01/15 03:28:34;;;;;;;9.53;1.30;;;6.90;99.90;;;;;;5041331;28;20993;-70
2023/01/15 03:31:01;;;;;;;8.43;1.03;;;6.90;99.90;;;;;;5029203;28;20229;-70
2023/01/15 03:33:29;;;;;;;5.17;1.03;;;6.90;99.90;;;;;;5022597;28;20197;-70
2023/01/15 03:35:59;;;;;;;2.97;1.07;;;6.80;99.90;;;;;;5045381;28;20694;-70
2023/01/15 03:38:29;;;;;;;6.63;1.40;;;6.80;99.90;;;;;;5033436;28;20993;-70
2023/01/15 03:41:07;;;;;;;4.43;0.63;;;6.90;99.90;;;;;;5046695;28;20197;-70
2023/01/15 03:43:44;;;;;;;10.87;1.40;;;6.90;99.90;;;;;;5007648;28;20227;-70
2023/01/15 03:46:25;;;;;;;6.93;1.37;;;6.90;99.90;;;;;;5028660;28;20205;-70
2023/01/15 03:48:57;;;;;;;7.70;1.30;;;6.80;99.90;;;;;;5039031;28;20206;-70
2023/01/15 03:51:29;;;;;;;11.00;1.43;;;6.90;99.90;;;;;;5046429;28;20220;-70
2023/01/15 03:53:58;;;;;;;4.77;1.27;;;6.90;99.90;;;;;;5037120;28;20695;-70
2023/01/15 03:56:35;;;;;;;3.13;1.37;;;6.90;99.90;;;;;;5000868;28;21925;-70
2023/01/15 03:59:09;;;;;;;4.93;1.20;;;6.90;99.90;;;;;;5026678;28;20231;-70
2023/01/15 04:01:39;;;;;;;7.47;1.50;;;6.90;99.90;;;;;;5039110;28;20201;-70
2023/01/15 04:04:07;;;;;;;5.90;1.90;;;6.90;99.90;;;;;;5019568;28;20248;-69
2023/01/15 04:06:36;;;;;;;5.50;1.60;;;6.90;99.90;;;;;;5034508;28;20189;-70
2023/01/15 04:09:06;;;;;;;3.33;1.17;;;6.80;99.90;;;;;;5042287;28;20194;-70
2023/01/15 04:11:32;;;;;;;9.43;1.40;;;6.90;99.90;;;;;;5036841;28;20343;-70
2023/01/15 04:13:59;;;;;;;3.70;1.10;;;6.80;99.90;;;;;;4993063;28;20209;-70
2023/01/15 04:16:30;;;;;;;5.97;1.30;;;6.90;99.90;;;;;;5032600;28;20208;-70
2023/01/15 04:18:57;;;;;;;6.23;1.23;;;7.00;99.90;;;;;;5030606;28;20300;-70
2023/01/15 04:21:24;;;;;;;3.43;1.10;;;6.80;99.90;;;;;;5024686;28;20772;-70
2023/01/15 04:23:51;;;;;;;3.87;1.43;;;6.80;99.90;;;;;;5042236;28;20669;-70
2023/01/15 04:26:18;;;;;;;6.10;1.40;;;6.80;99.90;;;;;;5014591;28;20666;-69
2023/01/15 04:28:45;;;;;;;4.50;1.13;;;6.80;99.90;;;;;;5000459;28;20220;-70
2023/01/15 04:31:12;;;;;;;8.63;1.60;;;6.80;99.90;;;;;;5022716;28;20229;-70
2023/01/15 04:33:40;;;;;;;6.07;1.47;;;6.80;99.90;;;;;;5044368;28;20662;-70
2023/01/15 04:36:07;;;;;;;7.13;1.70;;;6.80;99.90;;;;;;5038529;28;20967;-69
2023/01/15 04:38:34;;;;;;;4.67;1.50;;;6.80;99.90;;;;;;5041816;28;20193;-70
2023/01/15 04:46:33;;;;;;;7.97;1.60;;;6.90;99.90;;;;;;5027360;28;20201;-70
2023/01/15 04:49:01;;;;;;;4.37;1.77;;;6.80;99.90;;;;;;5042053;28;20189;-70
2023/01/15 04:51:28;;;;;;;4.53;1.17;;;6.80;99.90;;;;;;5023725;28;20784;-70
2023/01/15 04:53:55;;;;;;;4.07;1.17;;;6.80;99.90;;;;;;5031147;28;21575;-70
2023/01/15 04:56:22;;;;;;;5.20;1.20;;;6.80;99.90;;;;;;5025958;28;20201;-70
2023/01/15 04:58:49;;;;;;;5.60;2.10;;;6.80;99.90;;;;;;5019508;28;20602;-70
2023/01/15 05:01:18;;;;;;;11.30;2.10;;;6.80;99.90;;;;;;5035461;28;20193;-70
2023/01/15 05:03:45;;;;;;;6.83;1.70;;;6.80;99.90;;;;;;5027821;28;20249;-70
2023/01/15 05:06:14;;;;;;;11.03;1.70;;;6.80;99.90;;;;;;5033246;28;20212;-69
2023/01/15 05:08:40;;;;;;;4.77;1.70;;;6.70;99.90;;;;;;5042442;28;20867;-70
2023/01/15 05:11:08;;;;;;;11.63;1.70;;;6.70;99.90;;;;;;5045920;28;20228;-69
2023/01/15 05:13:36;;;;;;;9.10;1.33;;;6.70;99.90;;;;;;5011659;28;20824;-70
2023/01/15 05:16:10;;;;;;;8.23;1.20;;;6.70;99.90;;;;;;5039062;28;20197;-70
2023/01/15 05:18:37;;;;;;;5.53;1.37;;;6.70;99.90;;;;;;5029359;28;20195;-70
2023/01/15 05:21:05;;;;;;;8.17;1.67;;;6.70;99.90;;;;;;5050550;28;20208;-70
2023/01/15 05:23:33;;;;;;;11.40;1.80;;;6.70;99.90;;;;;;5036135;28;20204;-70
2023/01/15 05:26:03;;;;;;;6.23;1.70;;;6.60;99.90;;;;;;5045457;28;20205;-70
2023/01/15 05:28:30;;;;;;;10.30;1.53;;;6.70;99.90;;;;;;5035462;28;20197;-70
2023/01/15 05:30:56;;;;;;;4.63;1.40;;;6.70;99.90;;;;;;5016238;28;20215;-69
2023/01/15 05:33:23;;;;;;;6.37;1.60;;;6.70;99.90;;;;;;5036251;28;20211;-69
2023/01/15 05:35:50;;;;;;;8.23;1.47;;;6.70;99.90;;;;;;5027077;28;20252;-70
2023/01/15 05:38:17;;;;;;;7.00;1.70;;;6.70;99.90;;;;;;5037626;28;20212;-70
2023/01/15 05:40:45;;;;;;;10.10;1.63;;;6.70;99.90;;;;;;5049568;28;20196;-70
2023/01/15 05:43:12;;;;;;;8.33;1.40;;;6.70;99.90;;;;;;5051871;28;20572;-69
2023/01/15 05:45:38;;;;;;;8.80;2.13;;;6.70;99.90;;;;;;5004516;28;20326;-70
2023/01/15 05:48:05;;;;;;;5.07;1.37;;;6.70;99.90;;;;;;5045486;28;20211;-70
2023/01/15 05:50:32;;;;;;;5.60;2.00;;;6.70;99.90;;;;;;5030087;28;21780;-69
2023/01/15 05:52:59;;;;;;;4.53;1.40;;;6.70;99.90;;;;;;5041246;28;20235;-70
2023/01/15 05:55:26;;;;;;;2.73;1.10;;;6.80;99.90;;;;;;5047079;28;20203;-69
2023/01/15 05:57:54;;;;;;;3.30;1.53;;;6.70;99.90;;;;;;5037421;28;20952;-69
2023/01/15 06:00:22;;;;;;;9.80;1.77;;;6.70;99.90;;;;;;5037667;28;20216;-70
2023/01/15 06:02:50;;;;;;;5.97;1.73;;;6.70;99.90;;;;;;4999040;28;20264;-69
2023/01/15 06:05:18;;;;;;;6.30;1.60;;;6.70;99.90;;;;;;5018418;28;20212;-69
2023/01/15 06:07:48;;;;;;;7.63;1.70;;;6.70;99.90;;;;;;5045817;28;20197;-70
2023/01/15 06:10:16;;;;;;;5.30;1.40;;;6.60;99.90;;;;;;5028545;28;20228;-69
2023/01/15 06:12:43;;;;;;;8.33;1.77;;;6.60;99.90;;;;;;5032397;28;20241;-69
2023/01/15 06:15:12;;;;;;;8.23;1.53;;;6.60;99.90;;;;;;5032667;28;20205;-69
2023/01/15 06:17:39;;;;;;;7.20;1.87;;;6.70;99.90;;;;;;5015995;28;20209;-69
2023/01/15 06:20:07;;;;;;;5.93;1.53;;;6.70;99.90;;;;;;5035741;28;20217;-70
2023/01/15 06:22:33;;;;;;;5.90;1.53;;;6.70;99.90;;;;;;5044318;28;20204;-69
2023/01/15 06:25:00;;;;;;;9.63;1.73;;;6.70;99.90;;;;;;5030613;28;20200;-69
2023/01/15 06:27:28;;;;;;;4.97;1.00;;;6.60;99.90;;;;;;5047928;28;20769;-69
2023/01/15 06:29:57;;;;;;;5.10;1.23;;;6.50;99.90;;;;;;5036848;28;20273;-69
2023/01/15 06:32:26;;;;;;;6.83;1.40;;;6.60;99.90;;;;;;5037825;28;20671;-69
2023/01/15 06:34:52;;;;;;;8.27;1.80;;;6.60;99.90;;;;;;5007147;28;20223;-69
2023/01/15 06:37:19;;;;;;;4.63;1.43;;;6.50;99.90;;;;;;5030365;28;20221;-69
2023/01/15 06:39:46;;;;;;;11.70;1.50;;;6.50;99.90;;;;;;5027192;28;20206;-69
2023/01/15 06:47:42;;;;;;;4.40;1.30;;;6.50;99.90;;;;;;5037995;28;20304;-69
2023/01/15 06:50:10;;;;;;;9.43;1.70;;;6.50;99.90;;;;;;5023792;28;20685;-69
2023/01/15 06:52:37;;;;;;;6.33;1.20;;;6.40;99.90;;;;;;5025096;28;20229;-69
2023/01/15 06:55:04;;;;;;;6.23;1.43;;;6.40;99.90;;;;;;5046803;28;22075;-69
2023/01/15 06:57:31;;;;;;;8.20;1.73;;;6.40;99.90;;;;;;5027581;28;20682;-69
2023/01/15 06:59:58;;;;;;;5.03;1.43;;;6.40;99.90;;;;;;5046017;28;20204;-69
2023/01/15 07:02:25;;;;;;;3.83;1.23;;;6.30;99.90;;;;;;5034451;28;20208;-69
2023/01/15 07:04:53;;;;;;;8.67;2.07;;;6.30;99.90;;;;;;5020665;28;20219;-69
2023/01/15 07:07:21;;;;;;;11.47;1.53;;;6.30;99.90;;;;;;5041038;28;20197;-69
2023/01/15 07:09:47;;;;;;;7.63;1.30;;;6.30;99.90;;;;;;5037181;28;20903;-69
2023/01/15 07:12:14;;;;;;;5.20;1.23;;;6.30;99.90;;;;;;5039391;28;20235;-69
2023/01/15 07:14:41;;;;;;;3.77;1.63;;;6.20;99.90;;;;;;5051784;28;20212;-69
2023/01/15 07:17:08;;;;;;;5.03;1.07;;;6.30;99.90;;;;;;5036214;28;20200;-69
2023/01/15 07:19:35;;;;;;;4.60;1.50;;;6.20;99.90;;;;;;5034011;28;20210;-69
2023/01/15 07:22:03;;;;;;;10.57;1.60;;;6.20;99.90;;;;;;5026771;28;20950;-69
2023/01/15 07:24:30;;;;;;;3.70;1.27;;;6.20;99.90;;;;;;5043830;28;20201;-69
2023/01/15 07:26:57;;;;;;;6.43;1.73;;;6.20;99.90;;;;;;5037217;28;20300;-69
2023/01/15 07:29:24;;;;;;;8.60;1.60;;;6.20;99.90;;;;;;5032846;28;20292;-69
2023/01/15 07:31:51;;;;;;;5.30;1.30;;;6.20;99.90;;;;;;5036838;28;21605;-69
2023/01/15 07:34:18;;;;;;;4.73;1.30;;;6.20;99.90;;;;;;5046873;28;20208;-69
2023/01/15 07:36:45;;;;;;;12.57;1.70;;;6.10;99.90;;;;;;4999853;28;20235;-69
2023/01/15 07:39:13;;;;;;;6.87;1.53;;;6.10;99.90;;;;;;5042594;28;20205;-69
2023/01/15 07:50:02;;;;;;;4.90;1.17;;;6.00;99.90;;;;;;5045000;28;20318;-69
2023/01/15 07:52:28;;;;;;;7.27;1.17;;;6.00;99.90;;;;;;5021762;28;20224;-69
2023/01/15 07:54:57;;;;;;;6.93;1.60;;;6.00;99.90;;;;;;5037003;28;20682;-69
2023/01/15 07:57:23;;;;;;;4.43;1.40;;;6.10;99.90;;;;;;5044225;28;20674;-69
2023/01/15 07:59:50;;;;;;;4.87;1.20;;;6.00;99.90;;;;;;5033915;28;20219;-69
2023/01/15 08:02:17;;;;;;;13.97;1.90;;;6.00;99.90;;;;;;5024921;28;20211;-69
2023/01/15 08:04:46;;;;;;;3.70;1.60;;;6.10;99.90;;;;;;5030234;28;20207;-69
2023/01/15 08:07:14;;;;;;;6.27;1.37;;;6.10;99.90;;;;;;5010137;28;20544;-69
2023/01/15 08:09:41;;;;;;;10.70;1.63;;;6.10;99.90;;;;;;5006529;28;20200;-69
2023/01/15 08:15:13;;;;;;;4.60;1.30;;;6.10;99.90;;;;;;5032204;28;20203;-69
2023/01/15 08:17:41;;;;;;;7.53;1.77;;;6.10;99.90;;;;;;5031774;28;20211;-69
2023/01/15 08:20:11;;;;;;;8.80;1.70;;;6.00;99.90;;;;;;5041158;28;20204;-69
2023/01/15 08:22:38;;;;;;;6.60;1.70;;;6.10;99.90;;;;;;5015108;28;20295;-69
2023/01/15 08:25:06;;;;;;;4.90;1.50;;;6.00;99.90;;;;;;4997678;28;20264;-69
2023/01/15 08:27:35;;;;;;;11.30;1.67;;;6.10;99.90;;;;;;5017130;22;20242;-70
2023/01/15 08:30:02;;;;;;;7.70;1.33;;;6.00;99.90;;;;;;4952641;28;20227;-70
2023/01/15 08:32:29;;;;;;;2.20;1.10;;;6.00;99.90;;;;;;4968979;28;20638;-71
2023/01/15 08:34:56;;;;;;;8.13;1.70;;;6.00;99.90;;;;;;4979605;28;20205;-69
2023/01/15 08:37:23;;;;;;;4.23;1.43;;;6.00;99.90;;;;;;4975463;28;20230;-70
2023/01/15 08:39:51;;;;;;;6.27;2.17;;;6.00;99.90;;;;;;4950989;28;22189;-69
2023/01/15 08:42:18;;;;;;;8.77;2.33;;;6.00;99.90;;;;;;4976906;28;20233;-70
2023/01/15 08:44:47;;;;;;;6.10;1.57;;;6.10;99.90;;;;;;4949280;28;21624;-69
2023/01/15 08:47:14;;;;;;;3.67;1.50;;;6.40;99.90;;;;;;4975002;28;20220;-69
2023/01/15 08:49:41;;;;;;;9.53;1.40;;;6.10;99.90;;;;;;4967287;28;20215;-69
2023/01/15 08:52:08;;;;;;;4.07;1.10;;;6.10;99.90;;;;;;4970977;28;20235;-69
2023/01/15 08:54:35;;;;;;;9.20;1.87;;;6.00;99.90;;;;;;4933333;28;22777;-69
2023/01/15 08:57:01;;;;;;;6.47;1.40;;;6.10;99.90;;;;;;4976843;28;20213;-69
2023/01/15 08:59:29;;;;;;;5.33;1.43;;;6.10;99.90;;;;;;4972874;28;21245;-69
2023/01/15 09:01:58;;;;;;;7.77;1.77;;;6.20;99.90;;;;;;4949110;28;20717;-69
2023/01/15 09:04:24;;;;;;;7.03;1.23;;;6.20;99.90;;;;;;4966679;28;20233;-69
2023/01/15 09:06:51;;;;;;;4.57;1.07;;;6.30;99.90;;;;;;4961231;28;20232;-69
2023/01/15 09:09:18;;;;;;;5.50;1.70;;;6.30;99.90;;;;;;4977703;28;20531;-69
2023/01/15 09:11:45;;;;;;;2.97;1.40;;;6.30;99.90;;;;;;4951084;28;20225;-69
2023/01/15 09:14:14;;;;;;;3.53;1.30;;;6.30;99.90;;;;;;4970480;28;20241;-69
2023/01/15 09:16:41;;;;;;;2.73;1.17;;;6.30;99.90;;;;;;4963137;28;20195;-69
2023/01/15 09:19:12;;;;;;;3.93;1.53;;;6.30;99.90;;;;;;4959349;28;20222;-70
2023/01/15 09:21:38;;;;;;;3.20;1.40;;;6.30;99.90;;;;;;4977853;28;20565;-70
2023/01/15 09:24:06;;;;;;;7.73;1.60;;;6.30;99.90;;;;;;4968590;28;20215;-70
2023/01/15 09:26:35;;;;;;;4.37;1.13;;;6.30;99.90;;;;;;4945044;28;21034;-70
2023/01/15 09:29:02;;;;;;;2.83;1.10;;;6.20;99.90;;;;;;4971150;28;20218;-70
2023/01/15 09:31:30;;;;;;;6.27;1.47;;;6.20;99.90;;;;;;4962207;28;20210;-70
2023/01/15 09:33:57;;;;;;;4.80;1.50;;;6.30;99.90;;;;;;4947524;28;21212;-70
2023/01/15 09:36:28;;;;;;;7.10;1.20;;;6.30;99.90;;;;;;4948712;28;20221;-70
2023/01/15 09:38:55;;;;;;;3.67;1.53;;;6.30;99.90;;;;;;4963465;28;21549;-70
2023/01/15 09:44:28;;;;;;;5.70;1.00;;;6.40;99.90;;;;;;4975498;28;20321;-70
2023/01/15 09:47:07;;;;;;;3.67;1.20;;;6.30;99.90;;;;;;4969492;28;20199;-70
2023/01/15 09:49:50;;;;;;;1.67;0.80;;;6.30;99.90;;;;;;4969365;28;20234;-70
2023/01/15 09:52:28;;;;;;;13.27;1.50;;;6.30;99.90;;;;;;4987393;28;20198;-68
2023/01/15 09:55:01;;;;;;;6.27;1.83;;;6.30;99.90;;;;;;4963778;28;20233;-68
2023/01/15 09:57:29;;;;;;;3.60;1.10;;;;;;;;;;4950443;28;20218;-68
2023/01/15 10:00:00;;;;;;;5.27;1.30;;;6.30;99.90;;;;;;4977319;28;20200;-68
2023/01/15 10:02:34;;;;;;;8.27;1.53;;;6.30;99.90;;;;;;4969918;28;20233;-69
2023/01/15 10:05:07;;;;;;;5.47;1.30;;;6.40;99.90;;;;;;4954866;28;20234;-68
2023/01/15 10:07:42;;;;;;;5.27;1.43;;;6.40;99.90;;;;;;4967725;28;20232;-69
2023/01/15 10:10:13;;;;;;;5.70;1.37;;;6.40;99.90;;;;;;4953690;28;20229;-69
2023/01/15 10:12:43;;;;;;;4.40;1.20;;;6.50;99.90;;;;;;4958104;28;20730;-69
2023/01/15 10:15:37;;;;;;;8.20;1.27;;;6.40;99.90;;;;;;4978264;28;20238;-69
2023/01/15 10:18:07;;;;;;;8.90;1.37;;;6.40;99.90;;;;;;4965500;28;21330;-69
2023/01/15 10:20:52;;;;;;;4.63;1.17;;;6.40;99.90;;;;;;4978783;28;20216;-69
2023/01/15 10:23:38;;;;;;;5.67;1.57;;;6.40;99.90;;;;;;4981166;28;20233;-69
2023/01/15 10:26:17;;;;;;;5.47;1.33;;;6.40;99.90;;;;;;4955797;28;20980;-69
2023/01/15 10:28:58;;;;;;;3.23;1.03;;;6.40;99.90;;;;;;4955103;28;20223;-69
2023/01/15 10:31:35;;;;;;;3.40;1.30;;;6.40;99.90;;;;;;4979733;28;21062;-69
2023/01/15 10:34:27;;;;;;;6.87;1.43;;;6.40;99.90;;;;;;4962374;28;20570;-69
2023/01/15 10:36:58;;;;;;;0.93;0.83;;;6.40;99.90;;;;;;4977454;28;20309;-69
2023/01/15 10:39:32;;;;;;;2.47;0.90;;;6.40;99.90;;;;;;4975023;28;20214;-69
2023/01/15 10:42:11;;;;;;;4.03;0.93;;;6.30;99.90;;;;;;4953334;28;20806;-69
2023/01/15 10:44:48;;;;;;;3.00;0.67;;;6.30;99.90;;;;;;4974593;28;20668;-69
2023/01/15 10:47:20;;;;;;;3.07;1.00;;;6.20;99.90;;;;;;4980160;28;20198;-69
2023/01/15 10:49:49;;;;;;;1.20;0.60;;;6.10;99.90;;;;;;4929211;28;20242;-69
2023/01/15 10:52:25;;;;;;;3.90;0.80;;;6.00;99.90;;;;;;4956767;28;20866;-69
2023/01/15 10:55:06;;;;;;;1.03;0.50;;;5.90;99.90;;;;;;4963676;28;20231;-69
2023/01/15 10:57:44;;;;;;;0.67;0.67;;;5.80;99.90;;;;;;4979656;28;20720;-68
2023/01/15 11:00:12;;;;;;;1.13;0.53;;;5.80;99.90;;;;;;4956826;28;20254;-68
2023/01/15 11:05:16;;;;;;;0.97;0.40;;;5.60;99.90;;;;;;5044918;23;20245;-69
2023/01/15 11:07:45;;;;;;;1.10;0.50;;;5.50;99.90;;;;;;5025166;28;20270;-69
2023/01/15 11:10:15;;;;;;;1.17;0.67;;;5.50;99.90;;;;;;5051650;28;20200;-69
2023/01/15 11:21:15;;;;;;;0.77;0.50;;;5.60;99.90;;;;;;5033772;28;20261;-69
2023/01/15 11:23:42;;;;;;;1.37;0.47;;;5.70;99.90;;;;;;5051094;28;20208;-69
2023/01/15 11:26:18;;;;;;;3.50;0.50;;;5.60;99.90;;;;;;5053099;28;20200;-69
2023/01/15 11:28:46;;;;;;;2.43;0.60;;;5.60;99.90;;;;;;5024444;28;20216;-69
2023/01/15 11:31:14;;;;;;;1.30;0.50;;;5.60;99.90;;;;;;5040667;28;20209;-69
2023/01/15 11:33:45;;;;;;;1.57;0.57;;;5.60;99.90;;;;;;5045040;28;20798;-69
2023/01/15 11:36:21;;;;;;;1.93;1.00;;;5.70;99.90;;;;;;5022888;28;20224;-69
2023/01/15 11:38:50;;;;;;;4.53;0.80;;;5.70;99.90;;;;;;5046041;28;20589;-69
2023/01/15 11:41:22;;;;;;;3.13;1.07;;;5.60;99.90;;;;;;5049815;28;20200;-69
2023/01/15 11:52:11;;;;;;;1.27;0.60;;;5.50;99.90;;;;;;5041084;28;20211;-68
2023/01/15 11:54:41;;;;;;;2.00;0.80;;;5.60;99.90;;;;;;5049431;28;20232;-68
2023/01/15 11:57:11;;;;;;;1.77;0.77;;;5.50;99.90;;;;;;5056431;28;20204;-68
2023/01/15 11:59:38;;;;;;;1.77;0.80;;;5.60;99.90;;;;;;5021034;28;20281;-69
2023/01/15 12:02:17;;;;;;;4.77;0.83;;;5.60;99.90;;;;;;5049704;28;20624;-69
2023/01/15 12:04:52;;;;;;;2.83;0.97;;;5.60;99.90;;;;;;5050833;28;20318;-69
2023/01/15 12:07:23;;;;;;;1.57;0.77;;;5.60;99.90;;;;;;5039644;28;20231;-69
2023/01/15 12:10:10;;;;;;;4.00;1.10;;;5.70;99.90;;;;;;5017094;28;20233;-69
2023/01/15 12:12:52;;;;;;;4.03;0.93;;;5.70;99.90;;;;;;5063728;28;20731;-69
2023/01/15 12:15:36;;;;;;;2.30;1.10;;;5.80;99.90;;;;;;5022894;28;21816;-69
2023/01/15 12:18:29;;;;;;;3.10;1.03;;;5.80;99.90;;;;;;5051921;28;20218;-69
2023/01/15 12:21:04;;;;;;;1.67;0.90;;;5.80;99.90;;;;;;5025202;28;20701;-69
2023/01/15 12:23:55;;;;;;;2.70;1.00;;;5.90;99.90;;;;;;5037856;28;20276;-69
2023/01/15 12:26:27;;;;;;;4.90;1.50;;;5.90;99.90;;;;;;5049385;28;20227;-69
2023/01/15 12:29:02;;;;;;;1.93;1.13;;;6.00;99.90;;;;;;5035815;28;20227;-69
2023/01/15 12:31:33;;;;;;;4.43;1.20;;;6.00;99.90;;;;;;5022908;28;20234;-69
2023/01/15 12:34:06;;;;;;;7.67;1.50;;;6.10;99.90;;;;;;5046972;28;20232;-69
2023/01/15 12:36:38;;;;;;;5.70;1.30;;;6.10;99.90;;;;;;5041296;28;20782;-69
2023/01/15 12:39:14;;;;;;;4.57;1.23;;;6.10;99.90;;;;;;5029159;28;21134;-69
2023/01/15 12:47:35;;;;;;;4.27;1.30;;;6.30;99.90;;;;;;5044518;28;20278;-69
2023/01/15 12:50:10;;;;;;;2.27;1.00;;;6.50;99.90;;;;;;5049222;28;20231;-69
2023/01/15 12:52:43;;;;;;;5.10;1.20;;;6.50;99.90;;;;;;5023852;28;20814;-69
2023/01/15 12:55:14;;;;;;;4.30;0.80;;;6.60;99.90;;;;;;5033787;28;20227;-69
2023/01/15 12:57:45;;;;;;;4.20;1.00;;;7.40;99.90;;;;;;5057183;28;20207;-69
2023/01/15 13:00:18;;;;;;;2.43;1.20;;;7.10;99.90;;;;;;5045564;28;21034;-69
2023/01/15 13:02:57;;;;;;;2.00;0.87;;;7.10;99.90;;;;;;5036472;28;20204;-68
2023/01/15 13:05:30;;;;;;;2.60;1.13;;;6.80;99.90;;;;;;5056212;28;22247;-69
2023/01/15 13:08:03;;;;;;;5.63;1.43;;;6.70;99.90;;;;;;5031748;28;20232;-69
2023/01/15 13:10:34;;;;;;;4.07;1.20;;;6.70;99.90;;;;;;5014429;28;20713;-69
2023/01/15 13:13:15;;;;;;;6.17;1.53;;;6.70;99.90;;;;;;5035061;28;20228;-69
2023/01/15 13:15:56;;;;;;;4.80;1.73;;;6.90;99.90;;;;;;5032954;28;21098;-69
2023/01/15 13:18:31;;;;;;;4.53;1.50;;;6.70;99.90;;;;;;5012359;28;20227;-69
2023/01/15 13:21:05;;;;;;;6.30;1.30;;;6.70;99.90;;;;;;5043132;28;20993;-69
2023/01/15 13:23:44;;;;;;;6.17;1.43;;;6.70;99.90;;;;;;5040179;28;20223;-69
2023/01/15 13:26:26;;;;;;;6.10;1.27;;;6.70;99.90;;;;;;5026494;28;20231;-69
2023/01/15 13:29:12;;;;;;;4.33;1.03;;;6.70;99.90;;;;;;5045579;28;20194;-69
2023/01/15 13:32:00;;;;;;;3.13;1.53;;;6.70;99.90;;;;;;5029820;28;20208;-69
2023/01/15 13:34:31;;;;;;;4.90;1.30;;;6.80;99.90;;;;;;5051272;28;20224;-69
2023/01/15 13:37:03;;;;;;;5.33;1.43;;;6.80;99.90;;;;;;5054457;28;20251;-69
2023/01/15 13:39:38;;;;;;;3.70;1.60;;;6.90;99.90;;;;;;5025792;28;20231;-69
2023/01/15 13:44:53;;;;;;;8.20;1.87;;;6.90;99.90;;;;;;5048151;28;20211;-69
2023/01/15 13:47:25;;;;;;;11.80;1.20;;;6.90;99.90;;;;;;4994392;28;21486;-69
2023/01/15 13:49:55;;;;;;;5.30;1.33;;;6.90;99.90;;;;;;5040456;28;20227;-69
2023/01/15 13:52:26;;;;;;;9.70;1.40;;;7.00;99.90;;;;;;5052060;28;20219;-69
2023/01/15 13:54:55;;;;;;;7.17;1.63;;;7.00;99.90;;;;;;5046257;28;20228;-69
2023/01/15 13:57:34;;;;;;;7.47;1.57;;;7.00;99.90;;;;;;5034030;28;20220;-69
2023/01/15 14:00:02;;;;;;;3.87;1.37;;;7.00;99.90;;;;;;5057015;28;20213;-69
2023/01/15 14:02:33;;;;;;;4.17;1.23;;;7.00;99.90;;;;;;5029632;28;20239;-69
2023/01/15 14:05:11;;;;;;;6.47;1.80;;;7.00;99.90;;;;;;5026187;28;20240;-69
2023/01/15 14:07:38;;;;;;;6.73;1.50;;;7.00;99.90;;;;;;5057648;28;20227;-69
2023/01/15 14:10:26;;;;;;;4.80;1.60;;;7.00;99.90;;;;;;5035671;28;20224;-69
2023/01/15 14:13:13;;;;;;;2.77;1.23;;;7.00;99.90;;;;;;5024490;28;20221;-68